»·PEaware :: N737M KSFO-KLAS

N737M :: KSFO-KLAS

FLIGHT INFORMATION

Flight Status: Arrived
Operator: Privately registered:
United States
More flights under this callsign
Pilot: Cullen C. (7783)
Aircraft: BOEING 737-800
(B738)
More flights by this aircraft type
Origin: KSFO San Francisco Intl
United States
Destination: KLAS McCarran Intl
United States
More flights between these airports :: More routes between these airports
Route: +WESLA3 NTELL Q162 ESSAA BTY SUNST4
File this flight plan on PilotEdge
Remarks:
Altitude:
(Current/Filed)
35,000ft
Speed:
(Current/Filed)
460kts
Departed: 09-Jan-18 04:21 PM
Arrived: 09-Jan-18 05:30 PM
Distance/Time
Traveled:
359nm/1:09
Distance/Time
To Go:
Arrived

Flight Plot

Page will automatically refresh every two minutes.

Flight plan parsing failed; only flown route is shown


Map Options




Map Legend


Flown Route
Filed Route
Departure Airport
Arrival Airport
Navaid (VOR, NDB)
Fix

Horizontal Profiles

Position Reports

Time Latitude Longitude Heading Altitude Ground
Speed
09-Jan-18 15:33 37.627164 -122.383576 297 19ft 0kts
09-Jan-18 15:34 37.627164 -122.383576 297 19ft 0kts
09-Jan-18 15:35 37.627164 -122.383576 297 19ft 0kts
09-Jan-18 15:36 37.627164 -122.383576 297 19ft 0kts
09-Jan-18 15:37 37.627164 -122.383576 297 19ft 0kts
09-Jan-18 15:38 37.627164 -122.383576 297 19ft 0kts
09-Jan-18 15:39 37.627164 -122.383576 297 19ft 0kts
09-Jan-18 15:44 37.627164 -122.383576 297 19ft 0kts
09-Jan-18 15:45 37.627164 -122.383576 296 19ft 0kts
09-Jan-18 15:46 37.627164 -122.383576 297 19ft 0kts
09-Jan-18 15:47 37.627164 -122.383576 296 19ft 0kts
09-Jan-18 15:48 37.627164 -122.383576 296 19ft 0kts
09-Jan-18 15:49 37.627164 -122.383576 297 19ft 0kts
09-Jan-18 15:50 37.627164 -122.383576 297 19ft 0kts
09-Jan-18 15:51 37.627164 -122.383576 296 19ft 0kts
09-Jan-18 15:52 37.627164 -122.383576 297 19ft 0kts
09-Jan-18 15:53 37.627164 -122.383576 297 19ft 0kts
09-Jan-18 15:54 37.627164 -122.383576 297 19ft 0kts
09-Jan-18 15:55 37.627164 -122.383576 296 19ft 0kts
09-Jan-18 15:56 37.627164 -122.383576 297 19ft 0kts
09-Jan-18 15:57 37.627164 -122.383576 297 19ft 0kts
09-Jan-18 15:58 37.627164 -122.383576 297 19ft 0kts
09-Jan-18 15:59 37.627164 -122.383576 297 19ft 0kts
09-Jan-18 16:00 37.627164 -122.383576 297 19ft 0kts
09-Jan-18 16:01 37.627164 -122.383576 297 19ft 0kts
09-Jan-18 16:02 37.627164 -122.383576 297 19ft 0kts
09-Jan-18 16:03 37.627164 -122.383576 297 19ft 0kts
09-Jan-18 16:04 37.627164 -122.383576 297 19ft 0kts
09-Jan-18 16:05 37.627164 -122.383576 297 19ft 0kts
09-Jan-18 16:06 37.627140 -122.384415 223 20ft 7kts
09-Jan-18 16:07 37.625427 -122.381748 118 19ft 16kts
09-Jan-18 16:08 37.622971 -122.375938 118 20ft 19kts
09-Jan-18 16:09 37.620464 -122.369961 117 20ft 17kts
09-Jan-18 16:10 37.618490 -122.365307 118 20ft 15kts
09-Jan-18 16:11 37.616157 -122.359709 117 20ft 17kts
09-Jan-18 16:12 37.614529 -122.356732 198 19ft 0kts
09-Jan-18 16:13 37.614529 -122.356732 198 19ft 0kts
09-Jan-18 16:14 37.614529 -122.356732 198 19ft 0kts
09-Jan-18 16:15 37.614529 -122.356732 198 19ft 0kts
09-Jan-18 16:16 37.614529 -122.356732 198 19ft 0kts
09-Jan-18 16:17 37.614529 -122.356732 198 19ft 0kts
09-Jan-18 16:18 37.614529 -122.356732 198 19ft 0kts
09-Jan-18 16:19 37.614529 -122.356732 198 19ft 0kts
09-Jan-18 16:20 37.614529 -122.356732 198 19ft 0kts
09-Jan-18 16:21 37.614529 -122.356732 198 19ft 0kts
09-Jan-18 16:22 37.614529 -122.356732 198 19ft 0kts
09-Jan-18 16:23 37.614529 -122.356732 198 19ft 0kts
09-Jan-18 16:24 37.614529 -122.356732 198 19ft 0kts
09-Jan-18 16:25 37.614529 -122.356732 198 19ft 0kts
09-Jan-18 16:26 37.613873 -122.357607 268 20ft 14kts
09-Jan-18 16:27 37.628211 -122.389536 298 2217ft 172kts
09-Jan-18 16:28 37.654740 -122.454853 294 4209ft 228kts
09-Jan-18 16:29 37.655268 -122.529539 227 8477ft 272kts
09-Jan-18 16:30 37.575857 -122.535388 151 11989ft 342kts
09-Jan-18 16:31 37.491349 -122.473280 137 16100ft 369kts
09-Jan-18 16:32 37.428475 -122.368473 125 19822ft 397kts
09-Jan-18 16:33 37.390189 -122.236614 105 23333ft 422kts
09-Jan-18 16:34 37.359184 -122.092018 101 26881ft 437kts
09-Jan-18 16:35 37.326773 -121.942130 102 29955ft 451kts
09-Jan-18 16:36 37.295180 -121.796627 98 33790ft 425kts
09-Jan-18 16:37 37.264542 -121.653689 98 36286ft 424kts
09-Jan-18 16:38 37.234215 -121.511730 98 38386ft 425kts
09-Jan-18 16:39 37.209295 -121.394401 99 39849ft 426kts
09-Jan-18 16:40 37.179297 -121.252246 101 40867ft 439kts
09-Jan-18 16:41 37.147365 -121.100187 101 40851ft 478kts
09-Jan-18 16:42 37.112579 -120.933720 101 40848ft 515kts
09-Jan-18 16:43 37.076151 -120.758289 101 40837ft 523kts
09-Jan-18 16:44 37.039831 -120.582010 101 40839ft 523kts
09-Jan-18 16:45 37.003922 -120.406440 101 40841ft 524kts
09-Jan-18 16:46 36.968927 -120.233887 101 40834ft 524kts
09-Jan-18 16:47 36.933525 -120.058215 101 40836ft 524kts
09-Jan-18 16:48 36.906773 -119.880992 82 40842ft 515kts
09-Jan-18 16:49 36.953277 -119.718422 61 40839ft 501kts
09-Jan-18 16:50 37.006107 -119.557570 62 40839ft 502kts
09-Jan-18 16:51 37.057899 -119.396087 62 40840ft 502kts
09-Jan-18 16:52 37.109214 -119.236529 62 40833ft 503kts
09-Jan-18 16:53 37.160635 -119.077222 62 40834ft 503kts
09-Jan-18 16:54 37.212196 -118.918118 62 40809ft 503kts
09-Jan-18 16:55 37.265043 -118.755727 62 40810ft 504kts
09-Jan-18 16:56 37.289763 -118.580594 79 40783ft 516kts
09-Jan-18 16:57 37.304933 -118.401763 79 40784ft 516kts
09-Jan-18 16:58 37.320536 -118.226229 79 40777ft 517kts
09-Jan-18 16:59 37.336656 -118.047836 79 40778ft 517kts
09-Jan-18 17:00 37.350115 -117.868276 90 40768ft 523kts
09-Jan-18 17:01 37.332318 -117.686653 95 40779ft 523kts
09-Jan-18 17:02 37.315714 -117.506724 93 38005ft 526kts
09-Jan-18 17:03 37.298206 -117.329300 102 36004ft 527kts
09-Jan-18 17:04 37.225937 -117.187680 130 33997ft 453kts
09-Jan-18 17:05 37.161988 -117.086434 127 32134ft 443kts
09-Jan-18 17:06 37.074367 -116.945496 133 29494ft 448kts
09-Jan-18 17:07 36.987077 -116.876729 152 27643ft 448kts
09-Jan-18 17:08 36.860796 -116.789345 151 25034ft 448kts
09-Jan-18 17:09 36.779105 -116.717068 130 23798ft 431kts
09-Jan-18 17:10 36.685662 -116.584389 129 23778ft 438kts
09-Jan-18 17:11 36.619829 -116.490996 130 22141ft 431kts
09-Jan-18 17:12 36.530392 -116.364075 130 21367ft 418kts
09-Jan-18 17:13 36.467710 -116.274898 131 20813ft 413kts
09-Jan-18 17:14 36.392428 -116.169057 132 19464ft 402kts
09-Jan-18 17:15 36.319378 -116.066767 132 18056ft 391kts
09-Jan-18 17:16 36.248831 -115.967909 132 16886ft 370kts
09-Jan-18 17:17 36.190971 -115.871359 111 16002ft 344kts
09-Jan-18 17:18 36.155637 -115.760683 110 15982ft 348kts
09-Jan-18 17:19 36.120273 -115.650549 110 15001ft 340kts
09-Jan-18 17:20 36.086184 -115.545186 111 12617ft 320kts
09-Jan-18 17:21 36.055043 -115.449225 112 11157ft 296kts
09-Jan-18 17:22 36.028963 -115.355906 95 9456ft 285kts
09-Jan-18 17:23 36.022581 -115.260046 96 9333ft 279kts
09-Jan-18 17:24 36.016166 -115.167775 95 9334ft 260kts
09-Jan-18 17:25 36.010242 -115.080022 95 7969ft 236kts
09-Jan-18 17:26 36.008661 -115.001998 95 6480ft 228kts
09-Jan-18 17:27 36.002747 -114.924583 95 5016ft 226kts
09-Jan-18 17:28 35.995982 -114.848961 95 5005ft 220kts
09-Jan-18 17:29 36.020130 -114.793994 357 5008ft 221kts
09-Jan-18 17:30 36.057334 -114.849170 291 4980ft 225kts
09-Jan-18 17:31 36.073487 -114.920873 271 4993ft 214kts
09-Jan-18 17:32 36.073710 -114.993515 270 4234ft 196kts
09-Jan-18 17:33 36.073730 -115.053752 270 3286ft 156kts
09-Jan-18 17:34 36.073936 -115.104381 268 2450ft 143kts
09-Jan-18 17:35 36.073595 -115.146415 271 2119ft 66kts
09-Jan-18 17:36 36.075100 -115.155817 312 2118ft 19kts
09-Jan-18 17:37 36.077453 -115.158247 356 2118ft 0kts
09-Jan-18 17:38 36.077453 -115.158247 356 2118ft 0kts
09-Jan-18 17:39 36.078029 -115.154603 89 2118ft 18kts
09-Jan-18 17:40 36.078164 -115.147886 64 2118ft 16kts
09-Jan-18 17:41 36.080198 -115.148584 302 2118ft 12kts

Navigation Log

Ident Type
Flight plan parsing failed, navigation log unavailable